createdAt,value
2018-02-10T00:02:10.572Z,241.57
2018-02-10T00:04:44.195Z,254.00
2018-02-10T00:07:15.452Z,263.23
2018-02-10T00:09:47.683Z,255.02
2018-02-10T00:12:18.602Z,235.35
2018-02-10T00:18:29.642Z,230.77
2018-02-10T00:21:00.969Z,250.27
2018-02-10T00:23:39.430Z,238.57
2018-02-10T00:26:11.753Z,255.25
2018-02-10T00:28:43.055Z,264.67
2018-02-10T00:31:14.308Z,269.60
2018-02-10T00:33:46.255Z,283.58
2018-02-10T00:36:32.002Z,286.73
2018-02-10T00:39:13.033Z,290.92
2018-02-10T00:41:44.370Z,271.62
2018-02-10T00:44:15.484Z,248.50
2018-02-10T00:46:47.538Z,237.25
2018-02-10T00:49:18.518Z,268.90
2018-02-10T00:51:50.178Z,255.55
2018-02-10T00:54:21.590Z,255.82
2018-02-10T00:56:54.169Z,278.02
2018-02-10T00:59:26.355Z,266.40
2018-02-10T01:01:58.510Z,254.27
2018-02-10T01:04:30.478Z,244.82
2018-02-10T01:07:01.716Z,225.07
2018-02-10T01:09:33.522Z,232.98
2018-02-10T01:12:05.803Z,269.33
2018-02-10T01:14:38.034Z,246.65
2018-02-10T01:17:09.743Z,247.25
2018-02-10T01:19:40.567Z,243.27
2018-02-10T01:22:11.465Z,240.82
2018-02-10T01:24:42.444Z,260.15
2018-02-10T01:27:14.228Z,255.62
2018-02-10T01:29:46.534Z,249.70
2018-02-10T01:32:17.411Z,263.05
2018-02-10T01:34:48.170Z,262.35
2018-02-10T01:37:20.733Z,264.50
2018-02-10T01:39:52.180Z,256.33
2018-02-10T01:42:23.436Z,270.65
2018-02-10T01:44:55.088Z,276.15
2018-02-10T01:47:26.161Z,257.30
2018-02-10T01:50:07.899Z,238.10
2018-02-10T01:52:39.091Z,238.20
2018-02-10T01:55:11.141Z,269.40
2018-02-10T01:57:42.837Z,250.57
2018-02-10T02:00:14.542Z,238.90
2018-02-10T02:02:46.519Z,243.85
2018-02-10T02:05:18.131Z,249.70
2018-02-10T02:07:49.526Z,240.95
2018-02-10T02:10:21.759Z,239.05
2018-02-10T02:12:54.555Z,242.73
2018-02-10T02:15:26.387Z,240.37
2018-02-10T02:17:57.964Z,250.13
2018-02-10T02:20:30.864Z,237.23
2018-02-10T02:23:02.094Z,229.45
2018-02-10T02:25:33.208Z,233.93
2018-02-10T02:28:04.754Z,225.75
2018-02-10T02:30:37.357Z,230.05
2018-02-10T02:33:08.627Z,248.07
2018-02-10T02:35:39.831Z,238.77
2018-02-10T02:38:11.132Z,262.75
2018-02-10T02:40:43.558Z,280.52
2018-02-10T02:43:14.472Z,237.15
2018-02-10T02:45:46.394Z,245.95
2018-02-10T02:48:18.009Z,253.60
2018-02-10T02:50:52.216Z,261.70
2018-02-10T02:53:23.727Z,244.57
2018-02-10T02:55:55.007Z,245.57
2018-02-10T02:58:26.847Z,252.38
2018-02-10T03:00:57.595Z,264.55
2018-02-10T03:03:29.130Z,256.27
2018-02-10T03:05:59.905Z,247.02
2018-02-10T03:08:31.747Z,250.80
2018-02-10T03:11:03.052Z,238.27
2018-02-10T03:13:34.404Z,262.98
2018-02-10T03:16:05.151Z,221.00
2018-02-10T03:18:35.938Z,245.35
2018-02-10T03:21:07.434Z,254.73
2018-02-10T03:23:38.328Z,269.90
2018-02-10T03:26:09.911Z,256.60
2018-02-10T03:28:41.849Z,244.55
2018-02-10T03:31:14.041Z,239.75
2018-02-10T03:33:45.307Z,232.60
2018-02-10T03:36:16.850Z,238.23
2018-02-10T03:38:48.704Z,232.52
2018-02-10T03:41:19.391Z,242.43
2018-02-10T03:43:50.710Z,217.57
2018-02-10T03:46:21.497Z,224.30
2018-02-10T03:48:53.042Z,230.20
2018-02-10T03:51:23.751Z,246.30
2018-02-10T03:53:54.515Z,240.98
2018-02-10T03:56:27.040Z,249.95
2018-02-10T03:58:57.929Z,247.52
2018-02-10T04:01:28.625Z,254.80
2018-02-10T04:03:59.433Z,237.18
2018-02-10T04:06:30.196Z,220.63
2018-02-10T04:09:02.638Z,254.07
2018-02-10T04:11:33.546Z,232.07
2018-02-10T04:14:04.643Z,229.95
2018-02-10T04:16:36.977Z,220.57
2018-02-10T04:19:07.825Z,210.88
2018-02-10T04:21:38.545Z,224.37
2018-02-10T04:24:09.780Z,220.70
2018-02-10T04:26:40.955Z,223.25
2018-02-10T04:29:13.219Z,241.48
2018-02-10T04:31:44.075Z,245.82
2018-02-10T04:34:16.301Z,231.65
2018-02-10T04:36:47.095Z,218.00
2018-02-10T04:39:18.374Z,221.10
2018-02-10T04:41:49.210Z,210.88
2018-02-10T04:44:20.548Z,209.90
2018-02-10T04:46:51.407Z,215.12
2018-02-10T04:49:22.236Z,211.85
2018-02-10T04:51:53.033Z,239.38
2018-02-10T04:54:24.278Z,223.32
2018-02-10T04:56:56.380Z,230.45
2018-02-10T04:59:27.677Z,230.68
2018-02-10T05:01:58.619Z,240.45
2018-02-10T05:04:29.550Z,229.38
2018-02-10T05:07:00.372Z,223.23
2018-02-10T05:09:32.185Z,212.60
2018-02-10T05:12:02.900Z,226.57
2018-02-10T05:14:33.601Z,227.43
2018-02-10T05:17:05.078Z,235.38
2018-02-10T05:19:35.849Z,210.32
2018-02-10T05:22:06.963Z,223.00
2018-02-10T05:24:38.977Z,216.55
2018-02-10T05:27:10.232Z,213.18
2018-02-10T05:29:41.118Z,206.80
2018-02-10T05:32:11.958Z,212.85
2018-02-10T05:34:42.796Z,231.75
2018-02-10T05:37:14.230Z,222.55
2018-02-10T05:39:45.430Z,210.48
2018-02-10T05:42:16.955Z,214.65
2018-02-10T05:44:49.558Z,213.75
2018-02-10T05:47:21.172Z,214.93
2018-02-10T05:49:52.215Z,199.38
2018-02-10T05:52:23.023Z,203.98
2018-02-10T05:54:53.846Z,214.55
2018-02-10T05:57:25.890Z,197.55
2018-02-10T05:59:56.843Z,203.20
2018-02-10T06:02:27.671Z,201.88
2018-02-10T06:04:58.592Z,200.90
2018-02-10T06:07:30.676Z,197.32
2018-02-10T06:10:02.966Z,208.90
2018-02-10T06:12:33.969Z,196.02
2018-02-10T06:15:05.924Z,213.68
2018-02-10T06:17:37.188Z,213.75
2018-02-10T06:20:08.005Z,235.93
2018-02-10T06:22:39.610Z,211.20
2018-02-10T06:25:11.046Z,200.43
2018-02-10T06:27:42.544Z,200.07
2018-02-10T06:30:14.024Z,198.40
2018-02-10T06:32:45.771Z,188.80
2018-02-10T06:35:16.518Z,183.20
2018-02-10T06:37:52.575Z,196.18
2018-02-10T06:40:23.352Z,201.07
2018-02-10T06:42:54.090Z,175.77
2018-02-10T06:45:24.840Z,206.40
2018-02-10T06:47:56.824Z,182.82
2018-02-10T06:50:29.155Z,195.80
2018-02-10T06:53:01.240Z,198.75
2018-02-10T06:55:42.581Z,221.98
2018-02-10T06:58:14.717Z,206.57
2018-02-10T07:00:45.644Z,215.68
2018-02-10T07:03:17.791Z,203.00
2018-02-10T07:05:49.051Z,184.37
2018-02-10T07:08:19.779Z,184.07
2018-02-10T07:10:51.930Z,245.02
2018-02-10T07:13:23.894Z,215.98
2018-02-10T07:15:55.374Z,198.10
2018-02-10T07:18:27.002Z,199.43
2018-02-10T07:20:58.294Z,195.38
2018-02-10T07:23:28.994Z,187.07
2018-02-10T07:26:20.347Z,188.93
2018-02-10T07:28:51.845Z,181.73
2018-02-10T07:31:27.761Z,194.40
2018-02-10T07:33:58.839Z,207.82
2018-02-10T07:36:36.250Z,192.55
2018-02-10T07:39:09.506Z,201.43
2018-02-10T07:41:41.487Z,204.57
2018-02-10T07:44:13.282Z,201.27
2018-02-10T07:46:45.210Z,197.87
2018-02-10T07:49:17.567Z,211.82
2018-02-10T07:51:49.147Z,193.45
2018-02-10T07:54:19.880Z,200.35
2018-02-10T07:56:56.408Z,204.40
2018-02-10T07:59:30.996Z,192.43
2018-02-10T08:02:19.537Z,230.25
2018-02-10T08:04:50.286Z,216.63
2018-02-10T08:07:22.770Z,234.37
2018-02-10T08:09:53.829Z,256.30
2018-02-10T08:12:25.140Z,236.27
2018-02-10T08:14:56.691Z,257.77
2018-02-10T08:17:28.796Z,240.30
2018-02-10T08:20:02.604Z,239.68
2018-02-10T08:22:36.963Z,255.50
2018-02-10T08:25:09.805Z,242.40
2018-02-10T08:28:02.476Z,250.82
2018-02-10T08:30:37.696Z,242.98
2018-02-10T08:33:08.546Z,237.65
2018-02-10T08:35:39.599Z,244.80
2018-02-10T08:38:10.939Z,245.75
2018-02-10T08:41:35.418Z,240.05
2018-02-10T08:44:11.866Z,236.40
2018-02-10T08:46:42.615Z,224.40
2018-02-10T08:49:19.207Z,218.57
2018-02-10T08:51:50.862Z,210.25
2018-02-10T08:54:21.648Z,211.05
2018-02-10T08:56:52.709Z,206.18
2018-02-10T08:59:24.343Z,206.55
2018-02-10T09:01:57.044Z,203.23
2018-02-10T09:04:27.982Z,193.40
2018-02-10T09:06:58.718Z,185.77
2018-02-10T09:09:29.462Z,191.32
2018-02-10T09:12:00.208Z,189.20
2018-02-10T09:14:31.449Z,171.68
2018-02-10T09:17:02.214Z,167.73
2018-02-10T09:19:33.004Z,167.95
2018-02-10T09:22:03.777Z,169.83
2018-02-10T09:24:34.560Z,178.40
2018-02-10T09:27:05.655Z,164.03
2018-02-10T09:29:36.427Z,158.27
2018-02-10T09:32:07.285Z,157.18
2018-02-10T09:34:39.599Z,161.37
2018-02-10T09:37:10.479Z,157.57
2018-02-10T09:39:41.276Z,147.13
2018-02-10T09:42:12.832Z,144.77
2018-02-10T09:44:44.351Z,136.63
2018-02-10T09:47:15.358Z,133.00
2018-02-10T09:49:46.117Z,139.90
2018-02-10T09:52:16.834Z,134.17
2018-02-10T09:54:48.593Z,131.07
2018-02-10T09:57:19.350Z,122.27
2018-02-10T09:59:50.138Z,126.00
2018-02-10T10:02:21.116Z,134.50
2018-02-10T10:04:51.884Z,124.10
2018-02-10T10:07:23.684Z,108.63
2018-02-10T10:09:54.420Z,111.17
2018-02-10T10:12:25.135Z,126.97
2018-02-10T10:14:56.178Z,114.50
2018-02-10T10:17:26.943Z,113.27
2018-02-10T10:19:57.679Z,118.23
2018-02-10T10:22:28.441Z,116.40
2018-02-10T10:24:59.243Z,117.53
2018-02-10T10:27:30.274Z,120.10
2018-02-10T10:30:01.049Z,119.03
2018-02-10T10:32:31.954Z,117.33
2018-02-10T10:35:02.790Z,111.37
2018-02-10T10:37:33.590Z,104.50
2018-02-10T10:40:04.451Z,104.43
2018-02-10T10:42:35.231Z,107.40
2018-02-10T10:45:06.316Z,95.67
2018-02-10T10:47:37.126Z,87.20
2018-02-10T10:50:07.973Z,82.47
2018-02-10T10:52:39.595Z,82.50
2018-02-10T10:55:11.229Z,77.53
2018-02-10T10:57:42.248Z,79.00
2018-02-10T11:00:13.215Z,81.07
2018-02-10T11:02:44.840Z,81.30
2018-02-10T11:05:15.853Z,78.57
2018-02-10T11:07:47.289Z,77.43
2018-02-10T11:10:18.316Z,71.53
2018-02-10T11:12:49.885Z,68.97
2018-02-10T11:15:20.623Z,79.27
2018-02-10T11:17:51.635Z,75.10
2018-02-10T11:20:23.165Z,64.63
2018-02-10T11:22:53.960Z,70.33
2018-02-10T11:25:24.997Z,63.80
2018-02-10T11:27:55.761Z,66.27
2018-02-10T11:30:26.548Z,63.73
2018-02-10T11:32:57.316Z,66.60
2018-02-10T11:35:28.102Z,69.50
2018-02-10T11:37:59.877Z,68.53
2018-02-10T11:40:30.640Z,64.37
2018-02-10T11:43:01.580Z,62.47
2018-02-10T11:45:32.483Z,69.30
2018-02-10T11:48:03.247Z,62.27
2018-02-10T11:50:33.987Z,64.10
2018-02-10T11:53:04.749Z,63.73
2018-02-10T11:55:36.596Z,64.10
2018-02-10T11:58:07.406Z,58.90
2018-02-10T12:00:38.243Z,61.53
2018-02-10T12:03:09.183Z,60.83
2018-02-10T12:05:39.942Z,61.17
2018-02-10T12:08:11.615Z,64.03
2018-02-10T12:10:43.155Z,60.20
2018-02-10T12:13:14.142Z,68.63
2018-02-10T12:15:44.955Z,65.73
2018-02-10T12:18:15.737Z,63.13
2018-02-10T12:20:46.516Z,60.00
2018-02-10T12:23:17.823Z,59.53
2018-02-10T12:25:48.851Z,59.17
2018-02-10T12:28:19.648Z,54.70
2018-02-10T12:30:50.379Z,60.93
2018-02-10T12:33:21.123Z,55.70
2018-02-10T12:35:51.980Z,55.73
2018-02-10T12:38:22.761Z,53.87
2018-02-10T12:40:54.298Z,61.60
2018-02-10T12:43:25.790Z,62.10
2018-02-10T12:45:56.875Z,58.27
2018-02-10T12:48:33.260Z,55.90
2018-02-10T12:51:04.832Z,58.70
2018-02-10T12:53:35.664Z,55.10
2018-02-10T12:56:06.440Z,54.27
2018-02-10T12:58:37.176Z,59.27
2018-02-10T13:01:07.924Z,51.90
2018-02-10T13:03:38.944Z,53.10
2018-02-10T13:06:09.787Z,50.27
2018-02-10T13:08:40.539Z,53.27
2018-02-10T13:11:12.218Z,51.67
2018-02-10T13:13:43.876Z,49.73
2018-02-10T13:16:14.965Z,50.17
2018-02-10T13:18:45.736Z,48.40
2018-02-10T13:21:17.279Z,49.90
2018-02-10T13:23:48.170Z,49.00
2018-02-10T13:26:19.020Z,52.63
2018-02-10T13:28:49.803Z,49.17
2018-02-10T13:31:21.312Z,51.87
2018-02-10T13:33:52.325Z,44.33
2018-02-10T13:36:23.088Z,45.50
2018-02-10T13:38:53.888Z,45.17
2018-02-10T13:41:24.658Z,46.23
2018-02-10T13:43:57.346Z,47.90
2018-02-10T13:46:29.541Z,47.30
2018-02-10T13:49:01.291Z,47.37
2018-02-10T13:51:32.243Z,47.50
2018-02-10T13:54:03.796Z,45.00
2018-02-10T13:56:34.676Z,43.60
2018-02-10T13:59:05.520Z,43.60
2018-02-10T14:01:36.308Z,43.00
2018-02-10T14:04:07.679Z,45.63
2018-02-10T14:06:38.525Z,46.07
2018-02-10T14:09:09.996Z,44.13
2018-02-10T14:11:40.832Z,48.50
2018-02-10T14:14:11.738Z,42.90
2018-02-10T14:16:42.904Z,45.40
2018-02-10T14:19:14.881Z,45.97
2018-02-10T14:21:45.711Z,44.30
2018-02-10T14:24:16.618Z,45.43
2018-02-10T14:26:47.447Z,50.77
2018-02-10T14:29:18.225Z,47.77
2018-02-10T14:31:49.011Z,49.00
2018-02-10T14:34:20.111Z,46.03
2018-02-10T14:36:50.894Z,50.87
2018-02-10T14:39:21.598Z,49.20
2018-02-10T14:41:56.388Z,50.80
2018-02-10T14:44:29.645Z,49.67
2018-02-10T14:47:01.921Z,51.13
2018-02-10T14:49:32.657Z,49.60
2018-02-10T14:52:03.476Z,51.27
2018-02-10T14:54:34.211Z,52.97
2018-02-10T14:57:04.945Z,48.33
2018-02-10T14:59:35.754Z,51.30
2018-02-10T15:02:06.612Z,47.83
2018-02-10T15:04:37.856Z,54.30
2018-02-10T15:07:08.658Z,50.63
2018-02-10T15:09:40.138Z,54.50
2018-02-10T15:12:11.172Z,53.90
2018-02-10T15:14:41.935Z,53.10
2018-02-10T15:17:13.787Z,54.40
2018-02-10T15:19:44.581Z,51.77
2018-02-10T15:22:16.116Z,53.93
2018-02-10T15:24:48.007Z,53.23
2018-02-10T15:27:18.968Z,51.73
2018-02-10T15:29:58.254Z,52.40
2018-02-10T15:34:41.632Z,51.50
2018-02-10T15:37:12.760Z,56.57
2018-02-10T15:39:43.670Z,61.73
2018-02-10T15:42:15.306Z,53.63
2018-02-10T15:44:46.215Z,55.17
2018-02-10T15:47:19.740Z,56.40
2018-02-10T15:49:50.567Z,58.43
2018-02-10T15:52:21.393Z,61.70
2018-02-10T15:54:53.267Z,60.53
2018-02-10T15:57:24.190Z,63.70
2018-02-10T15:59:55.023Z,58.67
2018-02-10T16:02:27.144Z,59.10
2018-02-10T16:04:58.042Z,59.27
2018-02-10T16:07:34.265Z,62.73
2018-02-10T16:10:05.198Z,60.13
2018-02-10T16:12:35.975Z,58.67
2018-02-10T16:15:06.848Z,61.43
2018-02-10T16:17:41.001Z,62.83
2018-02-10T16:20:19.736Z,63.93
2018-02-10T16:22:51.980Z,68.83
2018-02-10T16:25:23.002Z,63.13
2018-02-10T16:27:53.801Z,73.63
2018-02-10T16:30:25.450Z,78.63
2018-02-10T16:32:58.267Z,77.37
2018-02-10T16:35:29.243Z,82.93
2018-02-10T16:37:59.989Z,80.10
2018-02-10T16:40:30.715Z,80.27
2018-02-10T16:43:03.093Z,82.23
2018-02-10T16:45:34.812Z,85.80
2018-02-10T16:48:05.570Z,80.13
2018-02-10T16:50:36.356Z,87.23
2018-02-10T16:53:07.128Z,90.60
2018-02-10T16:55:40.402Z,77.27
2018-02-10T16:58:11.554Z,85.90
2018-02-10T17:00:43.925Z,86.27
2018-02-10T17:03:14.836Z,83.83
2018-02-10T17:05:45.706Z,87.87
2018-02-10T17:08:16.592Z,86.37
2018-02-10T17:10:47.532Z,89.17
2018-02-10T17:13:21.672Z,91.90
2018-02-10T17:15:53.391Z,96.80
2018-02-10T17:18:25.609Z,88.47
2018-02-10T17:20:56.340Z,94.63
2018-02-10T17:23:27.059Z,97.97
2018-02-10T17:25:58.132Z,92.60
2018-02-10T17:28:28.914Z,98.27
2018-02-10T17:31:01.382Z,107.70
2018-02-10T17:33:32.422Z,98.33
2018-02-10T17:36:04.390Z,93.13
2018-02-10T17:38:35.915Z,95.57
2018-02-10T17:41:06.785Z,89.07
2018-02-10T17:43:37.522Z,100.50
2018-02-10T17:46:08.598Z,100.27
2018-02-10T17:48:39.362Z,105.07
2018-02-10T17:51:10.878Z,104.60
2018-02-10T17:53:41.752Z,93.60
2018-02-10T17:56:14.721Z,98.23
2018-02-10T17:58:47.362Z,99.37
2018-02-10T18:01:18.434Z,99.50
2018-02-10T18:03:49.558Z,92.43
2018-02-10T18:06:21.758Z,93.70
2018-02-10T18:09:05.363Z,92.67
2018-02-10T18:11:36.947Z,91.90
2018-02-10T18:14:09.227Z,82.63
2018-02-10T18:16:40.123Z,102.10
2018-02-10T18:19:10.926Z,96.80
2018-02-10T18:21:41.630Z,96.17
2018-02-10T18:24:13.153Z,113.17
2018-02-10T18:26:43.920Z,97.07
2018-02-10T18:29:15.432Z,102.00
2018-02-10T18:31:46.267Z,105.40
2018-02-10T18:34:17.261Z,112.77
2018-02-10T18:36:48.032Z,117.37
2018-02-10T18:39:18.833Z,114.90
2018-02-10T18:41:49.801Z,112.23
2018-02-10T18:44:21.327Z,114.27
2018-02-10T18:46:52.114Z,116.63
2018-02-10T18:49:23.685Z,125.80
2018-02-10T18:51:56.024Z,121.23
2018-02-10T18:54:26.964Z,114.57
2018-02-10T18:56:58.761Z,130.17
2018-02-10T18:59:29.528Z,121.00
2018-02-10T19:02:00.245Z,122.77
2018-02-10T19:04:31.276Z,124.37
2018-02-10T19:07:02.094Z,121.37
2018-02-10T19:09:33.576Z,134.03
2018-02-10T19:12:04.331Z,118.73
2018-02-10T19:14:35.246Z,121.17
2018-02-10T19:17:06.762Z,123.57
2018-02-10T19:19:38.288Z,118.10
2018-02-10T19:22:10.503Z,124.20
2018-02-10T19:24:41.200Z,134.30
2018-02-10T19:27:12.756Z,108.30
2018-02-10T19:29:44.239Z,118.83
2018-02-10T19:32:15.761Z,124.17
2018-02-10T19:34:47.532Z,104.43
2018-02-10T19:37:18.302Z,104.00
2018-02-10T19:39:49.071Z,104.40
2018-02-10T19:42:19.937Z,101.60
2018-02-10T19:44:50.661Z,99.47
2018-02-10T19:47:21.406Z,105.43
2018-02-10T19:49:52.117Z,101.00
2018-02-10T19:52:23.884Z,98.70
2018-02-10T19:54:54.720Z,109.63
2018-02-10T19:57:25.484Z,101.33
2018-02-10T19:59:56.195Z,97.80
2018-02-10T20:02:27.102Z,102.80
2018-02-10T20:04:58.199Z,103.00
2018-02-10T20:07:29.210Z,103.03
2018-02-10T20:09:59.948Z,81.53
2018-02-10T20:12:30.940Z,89.57
2018-02-10T20:15:01.712Z,91.53
2018-02-10T20:17:32.521Z,92.97
2018-02-10T20:20:16.464Z,101.60
2018-02-10T20:22:47.988Z,102.70
2018-02-10T20:25:18.779Z,95.57
2018-02-10T20:27:49.652Z,99.90
2018-02-10T20:30:20.452Z,94.97
2018-02-10T20:32:51.229Z,98.07
2018-02-10T20:35:21.966Z,116.63
2018-02-10T20:37:52.735Z,105.83
2018-02-10T20:40:24.257Z,100.27
2018-02-10T20:42:55.371Z,110.80
2018-02-10T20:45:26.104Z,99.00
2018-02-10T20:47:57.212Z,100.63
2018-02-10T20:50:27.932Z,106.40
2018-02-10T20:52:58.751Z,117.77
2018-02-10T20:55:30.314Z,104.43
2018-02-10T20:58:01.236Z,110.03
2018-02-10T21:00:32.803Z,111.17
2018-02-10T21:03:04.339Z,112.00
2018-02-10T21:05:35.830Z,117.57
2018-02-10T21:08:06.980Z,117.33
2018-02-10T21:10:37.800Z,112.67
2018-02-10T21:13:08.885Z,104.17
2018-02-10T21:15:39.678Z,112.90
2018-02-10T21:18:10.500Z,112.57
2018-02-10T21:20:41.262Z,107.67
2018-02-10T21:23:12.041Z,107.23
2018-02-10T21:25:43.527Z,106.90
2018-02-10T21:28:14.407Z,105.70
2018-02-10T21:30:45.129Z,103.43
2018-02-10T21:33:15.831Z,108.83
2018-02-10T21:35:46.505Z,95.77
2018-02-10T21:38:17.247Z,100.73
2018-02-10T21:40:48.063Z,95.97
2018-02-10T21:43:19.071Z,90.47
2018-02-10T21:45:50.002Z,104.60
2018-02-10T21:48:20.861Z,92.47
2018-02-10T21:50:51.544Z,98.37
2018-02-10T21:53:23.343Z,93.03
2018-02-10T21:55:54.066Z,98.90
2018-02-10T21:58:24.780Z,99.47
2018-02-10T22:00:55.908Z,96.17
2018-02-10T22:03:27.388Z,92.67
2018-02-10T22:05:58.130Z,85.93
2018-02-10T22:08:29.049Z,91.33
2018-02-10T22:10:59.897Z,89.87
2018-02-10T22:13:31.059Z,89.27
2018-02-10T22:16:01.777Z,85.43
2018-02-10T22:19:31.316Z,90.00
2018-02-10T22:22:04.393Z,93.87
2018-02-10T22:24:35.146Z,86.97
2018-02-10T22:27:06.247Z,88.57
2018-02-10T22:29:37.074Z,83.77
2018-02-10T22:32:07.785Z,81.63
2018-02-10T22:34:39.322Z,84.83
2018-02-10T22:37:10.119Z,87.83
2018-02-10T22:39:41.318Z,85.00
2018-02-10T22:42:12.915Z,90.53
2018-02-10T22:44:44.868Z,92.30
2018-02-10T22:47:15.595Z,93.77
2018-02-10T22:49:46.471Z,91.87
2018-02-10T22:52:17.231Z,92.67
2018-02-10T22:54:48.266Z,93.20
2018-02-10T22:57:20.186Z,80.47
2018-02-10T22:59:50.990Z,98.20
2018-02-10T23:02:22.102Z,94.03
2018-02-10T23:04:52.884Z,92.43
2018-02-10T23:07:23.587Z,101.00
2018-02-10T23:09:54.905Z,106.63
2018-02-10T23:12:25.612Z,106.37
2018-02-10T23:14:56.439Z,106.67
2018-02-10T23:17:27.583Z,106.83
2018-02-10T23:19:59.618Z,114.90
2018-02-10T23:22:30.382Z,117.13
2018-02-10T23:25:01.189Z,112.80
2018-02-10T23:27:31.984Z,114.03
2018-02-10T23:30:04.042Z,113.23
2018-02-10T23:32:35.538Z,119.67
2018-02-10T23:35:06.315Z,106.87
2018-02-10T23:37:37.301Z,102.93
2018-02-10T23:40:08.580Z,115.40
2018-02-10T23:42:39.400Z,106.83
2018-02-10T23:45:10.207Z,103.07
2018-02-10T23:47:41.351Z,112.83
2018-02-10T23:50:12.231Z,108.67
2018-02-10T23:52:42.998Z,106.50
2018-02-10T23:55:15.562Z,115.67
2018-02-10T23:57:46.400Z,124.00
